createdAt,value
2017-12-26T00:02:21.685Z,21.12
2017-12-26T00:04:48.080Z,20.90
2017-12-26T00:07:22.305Z,25.90
2017-12-26T00:09:49.506Z,26.05
2017-12-26T00:12:15.910Z,23.67
2017-12-26T00:14:42.338Z,25.45
2017-12-26T00:17:08.745Z,21.17
2017-12-26T00:19:35.893Z,20.35
2017-12-26T00:22:03.025Z,21.30
2017-12-26T00:24:29.455Z,20.25
2017-12-26T00:26:55.853Z,21.55
2017-12-26T00:29:22.258Z,22.60
2017-12-26T00:31:48.685Z,22.95
2017-12-26T00:34:16.082Z,23.15
2017-12-26T00:36:42.466Z,24.83
2017-12-26T00:39:09.630Z,22.17
2017-12-26T00:41:36.034Z,23.20
2017-12-26T00:44:03.193Z,21.75
2017-12-26T00:46:30.425Z,22.40
2017-12-26T00:48:56.814Z,22.10
2017-12-26T00:51:23.220Z,22.00
2017-12-26T00:53:49.760Z,21.37
2017-12-26T00:56:16.169Z,20.37
2017-12-26T00:58:43.302Z,20.80
2017-12-26T01:01:09.698Z,21.33
2017-12-26T01:03:36.174Z,19.95
2017-12-26T01:06:03.328Z,19.05
2017-12-26T01:08:30.513Z,20.98
2017-12-26T01:10:56.917Z,23.17
2017-12-26T01:13:24.083Z,22.05
2017-12-26T01:15:50.464Z,20.48
2017-12-26T01:18:17.028Z,21.00
2017-12-26T01:20:44.184Z,19.00
2017-12-26T01:23:11.298Z,18.23
2017-12-26T01:25:37.759Z,17.83
2017-12-26T01:28:04.881Z,17.40
2017-12-26T01:30:31.278Z,20.67
2017-12-26T01:32:57.850Z,20.08
2017-12-26T01:35:24.244Z,17.48
2017-12-26T01:37:50.654Z,17.85
2017-12-26T01:40:17.112Z,18.15
2017-12-26T01:42:43.482Z,18.80
2017-12-26T01:45:09.891Z,16.85
2017-12-26T01:47:36.408Z,16.73
2017-12-26T01:50:02.770Z,17.75
2017-12-26T01:52:29.137Z,17.02
2017-12-26T01:54:56.289Z,17.92
2017-12-26T01:57:22.790Z,16.92
2017-12-26T01:59:50.059Z,18.25
2017-12-26T02:02:17.212Z,16.67
2017-12-26T02:04:44.398Z,16.87
2017-12-26T02:07:11.528Z,16.67
2017-12-26T02:09:37.928Z,16.60
2017-12-26T02:12:04.357Z,16.70
2017-12-26T02:14:30.767Z,15.38
2017-12-26T02:16:57.177Z,17.80
2017-12-26T02:19:23.618Z,16.70
2017-12-26T02:21:50.013Z,15.68
2017-12-26T02:24:16.441Z,15.90
2017-12-26T02:26:43.609Z,14.57
2017-12-26T02:29:10.023Z,15.23
2017-12-26T02:31:37.145Z,15.35
2017-12-26T02:34:03.545Z,15.60
2017-12-26T02:36:29.948Z,15.60
2017-12-26T02:38:56.325Z,14.75
2017-12-26T02:41:22.751Z,15.95
2017-12-26T02:43:49.153Z,15.32
2017-12-26T02:46:15.646Z,15.15
2017-12-26T02:48:42.008Z,16.35
2017-12-26T02:51:08.397Z,16.15
2017-12-26T02:53:34.789Z,15.95
2017-12-26T02:56:01.162Z,14.30
2017-12-26T02:58:27.609Z,15.52
2017-12-26T03:00:54.718Z,16.23
2017-12-26T03:03:21.114Z,17.77
2017-12-26T03:05:47.555Z,15.20
2017-12-26T03:08:13.940Z,14.98
2017-12-26T03:10:40.424Z,15.32
2017-12-26T03:13:06.821Z,15.68
2017-12-26T03:15:33.927Z,15.38
2017-12-26T03:18:00.342Z,16.08
2017-12-26T03:20:26.759Z,14.85
2017-12-26T03:22:53.129Z,15.70
2017-12-26T03:25:19.533Z,13.98
2017-12-26T03:27:45.953Z,16.45
2017-12-26T03:30:12.310Z,16.67
2017-12-26T03:32:38.750Z,15.40
2017-12-26T03:35:05.129Z,15.48
2017-12-26T03:37:32.385Z,15.82
2017-12-26T03:39:58.737Z,17.02
2017-12-26T03:42:25.141Z,16.73
2017-12-26T03:44:52.277Z,17.33
2017-12-26T03:47:19.469Z,16.52
2017-12-26T03:49:45.876Z,16.48
2017-12-26T03:52:12.247Z,14.23
2017-12-26T03:54:38.681Z,15.52
2017-12-26T03:57:05.098Z,16.62
2017-12-26T03:59:31.496Z,14.32
2017-12-26T04:01:58.649Z,16.00
2017-12-26T04:04:25.772Z,15.10
2017-12-26T04:06:52.306Z,14.23
2017-12-26T04:09:18.678Z,16.15
2017-12-26T04:11:45.048Z,14.87
2017-12-26T04:14:11.458Z,12.63
2017-12-26T04:16:37.842Z,15.93
2017-12-26T04:19:05.013Z,14.77
2017-12-26T04:21:31.400Z,14.57
2017-12-26T04:23:57.796Z,14.73
2017-12-26T04:26:24.240Z,15.98
2017-12-26T04:28:50.653Z,14.40
2017-12-26T04:31:17.053Z,15.18
2017-12-26T04:33:44.176Z,13.93
2017-12-26T04:36:10.566Z,14.13
2017-12-26T04:38:37.041Z,14.52
2017-12-26T04:41:03.440Z,16.55
2017-12-26T04:43:29.817Z,14.52
2017-12-26T04:45:56.353Z,16.33
2017-12-26T04:48:23.609Z,15.32
2017-12-26T04:50:50.716Z,14.90
2017-12-26T04:53:17.233Z,15.20
2017-12-26T04:55:43.610Z,15.05
2017-12-26T04:58:10.002Z,13.88
2017-12-26T05:00:36.401Z,14.63
2017-12-26T05:03:03.506Z,15.20
2017-12-26T05:05:29.929Z,13.90
2017-12-26T05:07:56.364Z,13.00
2017-12-26T05:10:22.772Z,14.77
2017-12-26T05:12:49.148Z,15.65
2017-12-26T05:15:15.552Z,13.40
2017-12-26T05:17:41.929Z,13.75
2017-12-26T05:20:09.057Z,13.02
2017-12-26T05:22:35.456Z,15.00
2017-12-26T05:25:01.968Z,15.18
2017-12-26T05:27:28.372Z,13.80
2017-12-26T05:29:55.486Z,15.52
2017-12-26T05:32:21.933Z,15.35
2017-12-26T05:34:48.309Z,14.32
2017-12-26T05:37:14.677Z,16.40
2017-12-26T05:39:41.193Z,15.32
2017-12-26T05:42:07.544Z,13.90
2017-12-26T05:44:33.930Z,14.70
2017-12-26T05:47:00.310Z,16.45
2017-12-26T05:49:26.809Z,14.65
2017-12-26T05:51:53.174Z,11.27
2017-12-26T05:54:19.570Z,14.02
2017-12-26T05:56:46.002Z,12.60
2017-12-26T05:59:12.386Z,9.63
2017-12-26T06:01:38.820Z,10.82
2017-12-26T06:04:05.194Z,10.15
2017-12-26T06:06:31.574Z,10.60
2017-12-26T06:08:57.978Z,10.82
2017-12-26T06:11:24.349Z,11.65
2017-12-26T06:13:51.492Z,10.52
2017-12-26T06:16:18.845Z,12.32
2017-12-26T06:18:45.273Z,10.93
2017-12-26T06:21:11.769Z,12.48
2017-12-26T06:23:38.154Z,12.20
2017-12-26T06:26:05.297Z,14.43
2017-12-26T06:28:31.814Z,12.75
2017-12-26T06:30:58.308Z,13.15
2017-12-26T06:33:24.685Z,13.85
2017-12-26T06:35:51.088Z,13.75
2017-12-26T06:38:17.632Z,16.55
2017-12-26T06:40:44.027Z,15.32
2017-12-26T06:43:10.412Z,18.62
2017-12-26T06:45:36.801Z,15.95
2017-12-26T06:48:03.222Z,15.27
2017-12-26T06:50:29.655Z,12.20
2017-12-26T06:52:56.019Z,14.87
2017-12-26T06:55:22.438Z,11.85
2017-12-26T06:57:48.928Z,12.55
2017-12-26T07:00:16.184Z,12.30
2017-12-26T07:02:43.353Z,11.30
2017-12-26T07:05:09.725Z,11.00
2017-12-26T07:07:36.120Z,12.65
2017-12-26T07:10:02.566Z,13.80
2017-12-26T07:12:28.936Z,13.35
2017-12-26T07:14:55.355Z,13.07
2017-12-26T07:17:21.736Z,11.30
2017-12-26T07:19:48.157Z,12.60
2017-12-26T07:22:21.445Z,11.05
2017-12-26T07:24:47.865Z,11.80
2017-12-26T07:27:14.284Z,11.75
2017-12-26T07:29:40.678Z,11.50
2017-12-26T07:32:07.087Z,10.25
2017-12-26T07:34:33.470Z,11.75
2017-12-26T07:36:59.872Z,11.70
2017-12-26T07:39:26.249Z,10.50
2017-12-26T07:41:52.688Z,11.85
2017-12-26T07:44:19.818Z,11.30
2017-12-26T07:46:46.234Z,10.73
2017-12-26T07:49:12.665Z,9.27
2017-12-26T07:51:39.208Z,8.32
2017-12-26T07:54:05.577Z,7.60
2017-12-26T07:56:32.723Z,8.15
2017-12-26T07:58:59.840Z,6.53
2017-12-26T08:01:26.254Z,6.25
2017-12-26T08:03:52.676Z,6.53
2017-12-26T08:06:20.573Z,6.12
2017-12-26T08:08:46.966Z,4.85
2017-12-26T08:11:20.316Z,5.25
2017-12-26T08:13:47.436Z,4.97
2017-12-26T08:16:13.813Z,5.10
2017-12-26T08:18:40.960Z,4.32
2017-12-26T08:21:08.181Z,5.00
2017-12-26T08:23:34.572Z,5.70
2017-12-26T08:26:00.973Z,5.75
2017-12-26T08:28:27.379Z,5.30
2017-12-26T08:30:53.789Z,5.97
2017-12-26T08:33:20.227Z,5.55
2017-12-26T08:35:46.688Z,5.80
2017-12-26T08:38:13.015Z,6.47
2017-12-26T08:40:39.461Z,5.62
2017-12-26T08:43:06.582Z,4.53
2017-12-26T08:45:32.968Z,5.53
2017-12-26T08:47:59.372Z,6.50
2017-12-26T08:50:26.488Z,5.35
2017-12-26T08:52:52.998Z,5.60
2017-12-26T08:55:19.406Z,6.57
2017-12-26T08:57:45.826Z,5.55
2017-12-26T09:00:12.305Z,5.40
2017-12-26T09:02:39.573Z,5.00
2017-12-26T09:05:06.071Z,5.00
2017-12-26T09:07:32.512Z,5.35
2017-12-26T09:09:58.963Z,4.75
2017-12-26T09:12:25.499Z,5.00
2017-12-26T09:14:51.986Z,5.22
2017-12-26T09:17:19.180Z,4.72
2017-12-26T09:19:45.676Z,5.30
2017-12-26T09:22:12.906Z,4.65
2017-12-26T09:24:39.361Z,5.13
2017-12-26T09:27:06.717Z,5.70
2017-12-26T09:29:33.901Z,5.20
2017-12-26T09:32:00.373Z,4.57
2017-12-26T09:34:26.846Z,5.00
2017-12-26T09:36:54.040Z,4.23
2017-12-26T09:39:20.530Z,4.80
2017-12-26T09:41:47.757Z,4.60
2017-12-26T09:44:14.301Z,4.53
2017-12-26T09:46:40.801Z,4.27
2017-12-26T09:49:07.256Z,3.80
2017-12-26T09:51:33.730Z,4.17
2017-12-26T09:54:00.212Z,3.40
2017-12-26T09:56:26.671Z,3.70
2017-12-26T09:58:53.195Z,4.27
2017-12-26T10:01:19.676Z,3.63
2017-12-26T10:03:46.147Z,3.30
2017-12-26T10:06:12.652Z,4.20
2017-12-26T10:08:39.134Z,2.13
2017-12-26T10:11:05.589Z,2.83
2017-12-26T10:13:32.820Z,3.43
2017-12-26T10:15:59.339Z,3.03
2017-12-26T10:18:25.813Z,1.80
2017-12-26T10:20:53.023Z,2.90
2017-12-26T10:23:19.493Z,2.47
2017-12-26T10:25:46.811Z,2.07
2017-12-26T10:28:13.279Z,1.93
2017-12-26T10:30:40.491Z,1.93
2017-12-26T10:33:07.038Z,2.67
2017-12-26T10:35:33.448Z,2.00
2017-12-26T10:37:59.977Z,2.13
2017-12-26T10:40:26.446Z,2.30
2017-12-26T10:42:53.702Z,2.63
2017-12-26T10:45:20.292Z,1.97
2017-12-26T10:47:46.769Z,2.10
2017-12-26T10:50:13.367Z,1.70
2017-12-26T10:52:39.839Z,1.70
2017-12-26T10:55:06.440Z,1.77
2017-12-26T10:57:32.995Z,1.47
2017-12-26T10:59:59.438Z,2.07
2017-12-26T11:02:26.121Z,1.83
2017-12-26T11:04:52.610Z,1.47
2017-12-26T11:07:19.088Z,2.00
2017-12-26T11:09:45.910Z,2.20
2017-12-26T11:12:13.792Z,2.20
2017-12-26T11:14:40.277Z,1.60
2017-12-26T11:17:07.564Z,1.20
2017-12-26T11:19:34.804Z,1.30
2017-12-26T11:22:01.274Z,1.40
2017-12-26T11:27:23.051Z,1.10
2017-12-26T11:29:49.487Z,1.20
2017-12-26T11:32:16.051Z,1.20
2017-12-26T11:34:42.481Z,1.50
2017-12-26T11:37:08.986Z,1.60
2017-12-26T11:39:35.363Z,1.93
2017-12-26T11:42:02.114Z,1.17
2017-12-26T11:44:28.538Z,1.23
2017-12-26T11:46:55.178Z,1.60
2017-12-26T11:49:43.424Z,1.63
2017-12-26T11:52:10.157Z,1.40
2017-12-26T11:54:37.732Z,1.20
2017-12-26T11:57:05.582Z,1.70
2017-12-26T11:59:32.020Z,1.20
2017-12-26T12:01:58.708Z,1.33
2017-12-26T12:04:25.909Z,1.50
2017-12-26T12:06:53.113Z,1.40
2017-12-26T12:09:19.542Z,1.50
2017-12-26T12:11:52.854Z,1.00
2017-12-26T12:14:19.306Z,0.77
2017-12-26T12:19:41.288Z,0.90
2017-12-26T12:22:08.588Z,0.60
2017-12-26T12:24:35.013Z,0.70
2017-12-26T12:27:01.498Z,0.77
2017-12-26T12:29:28.645Z,0.90
2017-12-26T12:31:55.811Z,0.67
2017-12-26T12:34:22.950Z,0.97
2017-12-26T12:36:50.207Z,0.70
2017-12-26T12:39:17.376Z,0.60
2017-12-26T12:41:43.797Z,0.83
2017-12-26T12:44:10.993Z,1.00
2017-12-26T12:46:37.372Z,0.50
2017-12-26T12:49:04.576Z,0.80
2017-12-26T12:51:31.916Z,0.90
2017-12-26T12:53:58.596Z,0.83
2017-12-26T12:56:25.006Z,0.60
2017-12-26T12:58:51.566Z,0.70
2017-12-26T13:01:17.994Z,0.60
2017-12-26T13:03:45.132Z,0.70
2017-12-26T13:06:11.571Z,0.70
2017-12-26T13:08:38.047Z,0.60
2017-12-26T13:11:04.599Z,0.80
2017-12-26T13:13:31.030Z,0.53
2017-12-26T13:15:57.466Z,0.80
2017-12-26T13:18:23.865Z,0.88
2017-12-26T13:20:51.136Z,0.90
2017-12-26T13:23:17.548Z,0.70
2017-12-26T13:25:44.743Z,0.90
2017-12-26T13:28:11.178Z,0.70
2017-12-26T13:30:38.435Z,0.70
2017-12-26T13:33:04.825Z,0.70
2017-12-26T13:35:31.333Z,0.60
2017-12-26T13:37:58.489Z,0.70
2017-12-26T13:40:32.684Z,0.70
2017-12-26T13:42:59.151Z,0.90
2017-12-26T13:45:25.554Z,0.87
2017-12-26T13:47:52.010Z,0.50
2017-12-26T13:50:18.453Z,0.50
2017-12-26T13:52:44.861Z,0.43
2017-12-26T13:55:12.085Z,0.80
2017-12-26T13:57:38.529Z,0.97
2017-12-26T14:00:04.978Z,0.43
2017-12-26T14:02:32.150Z,0.60
2017-12-26T14:04:58.637Z,0.70
2017-12-26T14:07:25.071Z,0.70
2017-12-26T14:09:51.538Z,0.53
2017-12-26T14:12:17.945Z,0.60
2017-12-26T14:14:44.410Z,0.70
2017-12-26T14:17:10.809Z,0.40
2017-12-26T14:19:37.996Z,0.40
2017-12-26T14:22:04.397Z,0.40
2017-12-26T14:24:31.594Z,0.60
2017-12-26T14:26:58.012Z,0.70
2017-12-26T14:29:24.426Z,0.50
2017-12-26T14:31:51.607Z,0.57
2017-12-26T14:34:18.057Z,0.50
2017-12-26T14:36:44.527Z,0.77
2017-12-26T14:39:11.670Z,0.55
2017-12-26T14:41:38.100Z,0.60
2017-12-26T14:44:04.680Z,0.70
2017-12-26T14:46:31.080Z,0.70
2017-12-26T14:48:58.245Z,1.20
2017-12-26T14:51:24.637Z,0.90
2017-12-26T14:53:51.020Z,1.12
2017-12-26T14:56:17.532Z,3.45
2017-12-26T14:58:44.705Z,1.42
2017-12-26T15:01:11.098Z,1.20
2017-12-26T15:03:37.505Z,0.93
2017-12-26T15:06:03.938Z,0.85
2017-12-26T15:08:30.460Z,1.37
2017-12-26T15:10:58.806Z,2.10
2017-12-26T15:13:25.225Z,3.10
2017-12-26T15:15:52.366Z,3.37
2017-12-26T15:18:19.542Z,4.18
2017-12-26T15:20:46.056Z,4.10
2017-12-26T15:23:13.258Z,4.40
2017-12-26T15:25:39.710Z,2.47
2017-12-26T15:28:06.098Z,1.10
2017-12-26T15:30:32.549Z,1.50
2017-12-26T15:32:58.954Z,1.48
2017-12-26T15:35:25.377Z,5.78
2017-12-26T15:37:51.789Z,8.50
2017-12-26T15:40:18.930Z,14.02
2017-12-26T15:42:45.441Z,8.93
2017-12-26T15:45:11.841Z,2.37
2017-12-26T15:47:38.258Z,2.55
2017-12-26T15:50:04.696Z,1.85
2017-12-26T15:52:31.133Z,1.10
2017-12-26T15:54:57.509Z,1.40
2017-12-26T15:57:23.937Z,1.23
2017-12-26T15:59:50.374Z,1.37
2017-12-26T16:02:16.814Z,1.35
2017-12-26T16:04:43.253Z,1.20
2017-12-26T16:07:09.659Z,2.60
2017-12-26T16:09:36.082Z,2.10
2017-12-26T16:12:02.473Z,1.85
2017-12-26T16:14:30.659Z,3.20
2017-12-26T16:16:57.129Z,6.60
2017-12-26T16:19:23.522Z,5.90
2017-12-26T16:21:50.010Z,4.70
2017-12-26T16:24:16.433Z,2.60
2017-12-26T16:26:42.858Z,3.30
2017-12-26T16:29:09.289Z,3.20
2017-12-26T16:31:35.719Z,3.85
2017-12-26T16:34:02.103Z,3.75
2017-12-26T16:36:28.570Z,3.50
2017-12-26T16:38:54.990Z,3.20
2017-12-26T16:41:21.421Z,2.78
2017-12-26T16:43:47.851Z,2.70
2017-12-26T16:46:14.309Z,4.12
2017-12-26T16:48:40.758Z,5.00
2017-12-26T16:51:07.213Z,4.93
2017-12-26T16:53:34.401Z,5.50
2017-12-26T16:56:00.839Z,7.62
2017-12-26T16:58:27.267Z,10.07
2017-12-26T17:00:53.758Z,8.35
2017-12-26T17:03:20.198Z,5.80
2017-12-26T17:05:47.385Z,7.03
2017-12-26T17:08:13.774Z,5.15
2017-12-26T17:10:40.953Z,4.90
2017-12-26T17:13:07.342Z,5.32
2017-12-26T17:15:33.873Z,75.15
2017-12-26T17:18:00.274Z,10.02
2017-12-26T17:20:27.446Z,15.25
2017-12-26T17:22:53.857Z,26.70
2017-12-26T17:25:20.298Z,11.12
2017-12-26T17:27:46.726Z,9.63
2017-12-26T17:30:13.117Z,7.00
2017-12-26T17:32:40.309Z,8.73
2017-12-26T17:35:06.735Z,18.12
2017-12-26T17:37:33.162Z,7.18
2017-12-26T17:39:59.577Z,9.05
2017-12-26T17:42:25.996Z,5.40
2017-12-26T17:44:52.370Z,5.72
2017-12-26T17:47:18.923Z,6.50
2017-12-26T17:49:45.338Z,7.65
2017-12-26T17:52:11.763Z,9.73
2017-12-26T17:54:38.172Z,11.23
2017-12-26T17:57:04.604Z,8.98
2017-12-26T17:59:31.009Z,4.00
2017-12-26T18:01:58.209Z,7.82
2017-12-26T18:04:24.607Z,7.85
2017-12-26T18:06:51.025Z,17.50
2017-12-26T18:09:18.235Z,8.80
2017-12-26T18:11:44.602Z,7.05
2017-12-26T18:14:11.778Z,7.50
2017-12-26T18:16:38.184Z,8.90
2017-12-26T18:19:05.357Z,7.37
2017-12-26T18:21:31.761Z,7.70
2017-12-26T18:23:59.003Z,6.97
2017-12-26T18:26:25.474Z,6.82
2017-12-26T18:31:17.864Z,8.50
2017-12-26T18:33:44.322Z,9.82
2017-12-26T18:36:10.779Z,10.95
2017-12-26T18:38:37.936Z,9.50
2017-12-26T18:41:04.339Z,5.55
2017-12-26T18:43:30.804Z,8.63
2017-12-26T18:45:57.201Z,8.75
2017-12-26T18:48:23.629Z,8.95
2017-12-26T18:50:50.049Z,9.77
2017-12-26T18:53:16.457Z,2.70
2017-12-26T18:55:42.932Z,3.95
2017-12-26T18:58:09.367Z,3.50
2017-12-26T19:00:35.818Z,9.60
2017-12-26T19:03:02.998Z,8.07
2017-12-26T19:05:29.397Z,7.15
2017-12-26T19:07:56.597Z,2.58
2017-12-26T19:10:23.053Z,5.80
2017-12-26T19:12:49.477Z,17.37
2017-12-26T19:15:15.898Z,13.77
2017-12-26T19:20:38.808Z,9.20
2017-12-26T19:23:06.200Z,10.55
2017-12-26T19:25:32.729Z,18.95
2017-12-26T19:27:59.421Z,2.40
2017-12-26T19:30:25.873Z,8.73
2017-12-26T19:32:53.057Z,7.07
2017-12-26T19:35:19.660Z,8.90
2017-12-26T19:37:46.112Z,6.15
2017-12-26T19:40:12.768Z,6.53
2017-12-26T19:42:39.305Z,7.87
2017-12-26T19:45:05.869Z,6.43
2017-12-26T19:47:32.341Z,8.68
2017-12-26T19:49:58.894Z,7.45
2017-12-26T19:52:25.530Z,7.30
2017-12-26T19:54:52.746Z,4.18
2017-12-26T19:57:20.118Z,1.50
2017-12-26T19:59:46.551Z,3.37
2017-12-26T20:02:13.031Z,3.60
2017-12-26T20:04:39.491Z,22.55
2017-12-26T20:07:05.981Z,9.85
2017-12-26T20:09:32.378Z,10.15
2017-12-26T20:11:59.556Z,2.05
2017-12-26T20:14:26.124Z,9.02
2017-12-26T20:16:52.578Z,12.15
2017-12-26T20:19:19.790Z,10.32
2017-12-26T20:21:46.643Z,9.30
2017-12-26T20:24:13.115Z,13.27
2017-12-26T20:26:40.311Z,12.85
2017-12-26T20:29:06.783Z,10.13
2017-12-26T20:31:33.283Z,12.15
2017-12-26T20:33:59.728Z,11.35
2017-12-26T20:36:26.275Z,4.05
2017-12-26T20:38:52.715Z,6.82
2017-12-26T20:41:19.186Z,10.60
2017-12-26T20:43:45.657Z,3.50
2017-12-26T20:46:12.089Z,1.20
2017-12-26T20:48:38.579Z,1.90
2017-12-26T20:51:05.067Z,1.70
2017-12-26T20:53:31.668Z,2.40
2017-12-26T20:55:58.231Z,1.50
2017-12-26T20:58:24.763Z,4.35
2017-12-26T21:00:51.229Z,4.22
2017-12-26T21:03:18.578Z,2.22
2017-12-26T21:05:45.805Z,2.92
2017-12-26T21:08:12.240Z,4.68
2017-12-26T21:10:38.653Z,3.75
2017-12-26T21:13:05.180Z,3.90
2017-12-26T21:15:31.592Z,4.35
2017-12-26T21:17:58.034Z,5.10
2017-12-26T21:20:24.462Z,4.75
2017-12-26T21:22:50.863Z,5.55
2017-12-26T21:25:18.120Z,4.35
2017-12-26T21:27:45.339Z,7.95
2017-12-26T21:30:11.792Z,3.25
2017-12-26T21:32:38.940Z,4.22
2017-12-26T21:35:06.107Z,8.45
2017-12-26T21:37:33.341Z,13.62
2017-12-26T21:40:00.497Z,6.47
2017-12-26T21:42:27.679Z,6.45
2017-12-26T21:44:54.126Z,8.85
2017-12-26T21:47:20.585Z,7.35
2017-12-26T21:49:47.142Z,8.63
2017-12-26T21:52:14.311Z,8.00
2017-12-26T21:54:40.780Z,14.55
2017-12-26T21:57:07.304Z,17.92
2017-12-26T21:59:33.782Z,2.40
2017-12-26T22:02:00.215Z,3.70
2017-12-26T22:04:26.754Z,3.90
2017-12-26T22:06:53.148Z,6.57
2017-12-26T22:09:20.426Z,5.97
2017-12-26T22:11:46.852Z,4.82
2017-12-26T22:14:13.238Z,4.37
2017-12-26T22:16:39.633Z,4.70
2017-12-26T22:19:06.068Z,3.47
2017-12-26T22:21:33.270Z,4.18
2017-12-26T22:23:59.715Z,4.55
2017-12-26T22:26:26.886Z,4.57
2017-12-26T22:28:53.321Z,4.82
2017-12-26T22:31:19.760Z,5.47
2017-12-26T22:33:46.170Z,9.68
2017-12-26T22:36:12.669Z,10.55
2017-12-26T22:38:39.091Z,8.75
2017-12-26T22:41:05.579Z,9.90
2017-12-26T22:43:31.981Z,8.60
2017-12-26T22:45:58.387Z,7.95
2017-12-26T22:48:24.823Z,6.35
2017-12-26T22:50:51.308Z,5.95
2017-12-26T22:53:17.745Z,7.10
2017-12-26T22:55:44.328Z,7.20
2017-12-26T22:58:10.726Z,8.05
2017-12-26T23:00:37.967Z,8.00
2017-12-26T23:03:04.364Z,8.73
2017-12-26T23:05:30.770Z,7.80
2017-12-26T23:07:57.376Z,7.12
2017-12-26T23:10:24.558Z,7.65
2017-12-26T23:12:50.978Z,7.90
2017-12-26T23:15:23.395Z,8.73
2017-12-26T23:17:55.943Z,8.02
2017-12-26T23:20:43.216Z,7.53
2017-12-26T23:23:15.589Z,9.32
2017-12-26T23:25:48.181Z,8.27
2017-12-26T23:28:21.566Z,9.15
2017-12-26T23:30:54.736Z,7.60
2017-12-26T23:33:27.240Z,10.38
2017-12-26T23:36:00.390Z,9.45
2017-12-26T23:38:32.765Z,8.40
2017-12-26T23:41:05.101Z,8.20
2017-12-26T23:43:37.418Z,7.57
2017-12-26T23:46:09.807Z,6.70
2017-12-26T23:48:42.899Z,7.00
2017-12-26T23:51:16.019Z,5.07
2017-12-26T23:53:48.629Z,6.80
2017-12-26T23:56:21.067Z,6.18
2017-12-26T23:58:53.624Z,5.00
